sensor_id;sensor_type;location;lat;lon;timestamp;pressure;altitude;pressure_sealevel;temperature;humidity
66560;BME280;53413;49.878;8.142;2023-03-31T00:00:56;99210.50;;;10.50;100.00
66560;BME280;53413;49.878;8.142;2023-03-31T00:03:22;99195.56;;;10.52;100.00
66560;BME280;53413;49.878;8.142;2023-03-31T00:05:48;99186.00;;;10.51;100.00
66560;BME280;53413;49.878;8.142;2023-03-31T00:08:17;99180.00;;;10.49;100.00
66560;BME280;53413;49.878;8.142;2023-03-31T00:10:44;99178.31;;;10.47;100.00
66560;BME280;53413;49.878;8.142;2023-03-31T00:13:11;99176.94;;;10.40;100.00
66560;BME280;53413;49.878;8.142;2023-03-31T00:15:37;99174.59;;;10.34;100.00
66560;BME280;53413;49.878;8.142;2023-03-31T00:18:02;99166.88;;;10.31;100.00
66560;BME280;53413;49.878;8.142;2023-03-31T00:20:28;99180.06;;;10.29;100.00
66560;BME280;53413;49.878;8.142;2023-03-31T00:22:53;99171.34;;;10.29;100.00
66560;BME280;53413;49.878;8.142;2023-03-31T00:25:21;99183.69;;;10.27;100.00
66560;BME280;53413;49.878;8.142;2023-03-31T00:27:47;99187.38;;;10.23;100.00
66560;BME280;53413;49.878;8.142;2023-03-31T00:30:14;99179.66;;;10.20;100.00
66560;BME280;53413;49.878;8.142;2023-03-31T00:32:40;99177.97;;;10.19;100.00
66560;BME280;53413;49.878;8.142;2023-03-31T00:35:06;99170.34;;;10.14;100.00
66560;BME280;53413;49.878;8.142;2023-03-31T00:37:31;99175.81;;;10.09;100.00
66560;BME280;53413;49.878;8.142;2023-03-31T00:39:59;99162.50;;;9.96;100.00
66560;BME280;53413;49.878;8.142;2023-03-31T00:42:25;99163.25;;;9.81;100.00
66560;BME280;53413;49.878;8.142;2023-03-31T00:47:42;99155.19;;;9.49;100.00
66560;BME280;53413;49.878;8.142;2023-03-31T00:50:15;99154.63;;;9.42;100.00
66560;BME280;53413;49.878;8.142;2023-03-31T00:52:45;99142.38;;;9.43;100.00
66560;BME280;53413;49.878;8.142;2023-03-31T00:55:15;99134.63;;;9.41;100.00
66560;BME280;53413;49.878;8.142;2023-03-31T00:57:42;99124.16;;;9.41;100.00
66560;BME280;53413;49.878;8.142;2023-03-31T01:00:12;99121.56;;;9.41;100.00
66560;BME280;53413;49.878;8.142;2023-03-31T01:02:43;99118.06;;;9.40;100.00
66560;BME280;53413;49.878;8.142;2023-03-31T01:05:17;99117.28;;;9.38;100.00
66560;BME280;53413;49.878;8.142;2023-03-31T01:07:47;99114.75;;;9.37;100.00
66560;BME280;53413;49.878;8.142;2023-03-31T01:10:14;99105.22;;;9.36;100.00
66560;BME280;53413;49.878;8.142;2023-03-31T01:12:41;99104.44;;;9.34;100.00
66560;BME280;53413;49.878;8.142;2023-03-31T01:15:08;99103.75;;;9.30;100.00
66560;BME280;53413;49.878;8.142;2023-03-31T01:17:35;99102.06;;;9.29;100.00
66560;BME280;53413;49.878;8.142;2023-03-31T01:28:40;99065.06;;;9.19;100.00
66560;BME280;53413;49.878;8.142;2023-03-31T01:50:54;99024.13;;;8.82;100.00
66560;BME280;53413;49.878;8.142;2023-03-31T01:53:35;99016.38;;;8.80;100.00
66560;BME280;53413;49.878;8.142;2023-03-31T02:02:02;99009.03;;;8.88;100.00
66560;BME280;53413;49.878;8.142;2023-03-31T02:04:33;99005.50;;;8.89;100.00
66560;BME280;53413;49.878;8.142;2023-03-31T02:07:32;98996.59;;;8.93;100.00
66560;BME280;53413;49.878;8.142;2023-03-31T02:10:01;98992.91;;;8.98;100.00
66560;BME280;53413;49.878;8.142;2023-03-31T02:12:30;98983.63;;;9.09;100.00
66560;BME280;53413;49.878;8.142;2023-03-31T02:14:58;98981.25;;;9.22;100.00
66560;BME280;53413;49.878;8.142;2023-03-31T02:17:26;98978.03;;;9.35;100.00
66560;BME280;53413;49.878;8.142;2023-03-31T02:19:58;98968.78;;;9.45;100.00
66560;BME280;53413;49.878;8.142;2023-03-31T02:22:29;98968.28;;;9.56;100.00
66560;BME280;53413;49.878;8.142;2023-03-31T02:24:56;98962.72;;;9.62;100.00
66560;BME280;53413;49.878;8.142;2023-03-31T02:27:29;98964.19;;;9.68;100.00
66560;BME280;53413;49.878;8.142;2023-03-31T02:29:55;98953.50;;;9.73;100.00
66560;BME280;53413;49.878;8.142;2023-03-31T02:32:27;98948.78;;;9.79;100.00
66560;BME280;53413;49.878;8.142;2023-03-31T02:34:54;98955.38;;;9.86;100.00
66560;BME280;53413;49.878;8.142;2023-03-31T02:37:20;98950.75;;;9.92;100.00
66560;BME280;53413;49.878;8.142;2023-03-31T02:39:47;98943.41;;;9.98;100.00
66560;BME280;53413;49.878;8.142;2023-03-31T02:42:14;98942.31;;;10.02;100.00
66560;BME280;53413;49.878;8.142;2023-03-31T02:44:40;98920.47;;;10.04;100.00
66560;BME280;53413;49.878;8.142;2023-03-31T02:47:08;98911.69;;;10.05;100.00
66560;BME280;53413;49.878;8.142;2023-03-31T02:49:36;98911.44;;;10.09;100.00
66560;BME280;53413;49.878;8.142;2023-03-31T02:52:47;98886.03;;;10.11;100.00
66560;BME280;53413;49.878;8.142;2023-03-31T02:55:37;98874.63;;;10.12;100.00
66560;BME280;53413;49.878;8.142;2023-03-31T02:58:34;98863.38;;;10.10;100.00
66560;BME280;53413;49.878;8.142;2023-03-31T03:01:26;98841.13;;;10.03;100.00
66560;BME280;53413;49.878;8.142;2023-03-31T03:04:22;98837.88;;;9.98;100.00
66560;BME280;53413;49.878;8.142;2023-03-31T03:07:05;98842.63;;;9.91;100.00
66560;BME280;53413;49.878;8.142;2023-03-31T03:12:23;98848.88;;;9.89;100.00
66560;BME280;53413;49.878;8.142;2023-03-31T03:17:45;98841.19;;;10.01;100.00
66560;BME280;53413;49.878;8.142;2023-03-31T03:20:12;98820.75;;;10.08;100.00
66560;BME280;53413;49.878;8.142;2023-03-31T03:22:38;98823.09;;;10.13;100.00
66560;BME280;53413;49.878;8.142;2023-03-31T03:25:06;98807.41;;;10.13;100.00
66560;BME280;53413;49.878;8.142;2023-03-31T03:27:34;98799.75;;;10.10;100.00
66560;BME280;53413;49.878;8.142;2023-03-31T03:30:00;98795.44;;;10.09;100.00
66560;BME280;53413;49.878;8.142;2023-03-31T03:32:26;98804.13;;;10.09;100.00
66560;BME280;53413;49.878;8.142;2023-03-31T03:34:52;98801.50;;;10.09;100.00
66560;BME280;53413;49.878;8.142;2023-03-31T03:37:17;98804.38;;;10.05;100.00
66560;BME280;53413;49.878;8.142;2023-03-31T03:39:42;98805.41;;;10.02;100.00
66560;BME280;53413;49.878;8.142;2023-03-31T03:42:08;98777.69;;;9.98;100.00
66560;BME280;53413;49.878;8.142;2023-03-31T03:44:33;98775.25;;;9.95;100.00
66560;BME280;53413;49.878;8.142;2023-03-31T03:46:58;98744.97;;;9.91;100.00
66560;BME280;53413;49.878;8.142;2023-03-31T03:49:24;98737.28;;;9.88;100.00
66560;BME280;53413;49.878;8.142;2023-03-31T03:51:49;98745.28;;;9.84;100.00
66560;BME280;53413;49.878;8.142;2023-03-31T03:54:15;98740.22;;;9.81;100.00
66560;BME280;53413;49.878;8.142;2023-03-31T03:56:41;98742.00;;;9.81;100.00
66560;BME280;53413;49.878;8.142;2023-03-31T03:59:06;98732.56;;;9.78;100.00
66560;BME280;53413;49.878;8.142;2023-03-31T04:01:31;98737.03;;;9.76;100.00
66560;BME280;53413;49.878;8.142;2023-03-31T04:03:56;98737.19;;;9.73;100.00
66560;BME280;53413;49.878;8.142;2023-03-31T04:06:22;98744.03;;;9.76;100.00
66560;BME280;53413;49.878;8.142;2023-03-31T04:08:47;98741.16;;;9.80;100.00
66560;BME280;53413;49.878;8.142;2023-03-31T04:11:19;98740.16;;;9.83;100.00
66560;BME280;53413;49.878;8.142;2023-03-31T04:13:45;98739.22;;;9.84;100.00
66560;BME280;53413;49.878;8.142;2023-03-31T04:16:11;98731.28;;;9.85;100.00
66560;BME280;53413;49.878;8.142;2023-03-31T04:18:37;98729.31;;;9.89;100.00
66560;BME280;53413;49.878;8.142;2023-03-31T04:21:08;98715.16;;;9.93;100.00
66560;BME280;53413;49.878;8.142;2023-03-31T04:23:37;98699.34;;;9.95;100.00
66560;BME280;53413;49.878;8.142;2023-03-31T04:26:08;98708.72;;;9.99;100.00
66560;BME280;53413;49.878;8.142;2023-03-31T04:28:35;98706.00;;;10.00;100.00
66560;BME280;53413;49.878;8.142;2023-03-31T04:31:01;98695.38;;;10.04;100.00
66560;BME280;53413;49.878;8.142;2023-03-31T04:33:28;98691.84;;;10.05;100.00
66560;BME280;53413;49.878;8.142;2023-03-31T04:35:53;98689.13;;;10.06;100.00
66560;BME280;53413;49.878;8.142;2023-03-31T04:38:23;98709.13;;;10.07;100.00
66560;BME280;53413;49.878;8.142;2023-03-31T04:40:52;98706.34;;;10.10;100.00
66560;BME280;53413;49.878;8.142;2023-03-31T04:43:19;98703.56;;;10.13;100.00
66560;BME280;53413;49.878;8.142;2023-03-31T04:45:46;98704.31;;;10.15;100.00
66560;BME280;53413;49.878;8.142;2023-03-31T04:48:12;98699.91;;;10.16;100.00
66560;BME280;53413;49.878;8.142;2023-03-31T04:50:38;98688.03;;;10.10;100.00
66560;BME280;53413;49.878;8.142;2023-03-31T04:53:04;98695.22;;;10.07;100.00
66560;BME280;53413;49.878;8.142;2023-03-31T04:55:30;98697.06;;;10.05;100.00
66560;BME280;53413;49.878;8.142;2023-03-31T04:57:55;98698.09;;;10.02;100.00
66560;BME280;53413;49.878;8.142;2023-03-31T05:00:21;98693.03;;;9.99;100.00
66560;BME280;53413;49.878;8.142;2023-03-31T05:02:47;98689.47;;;10.00;100.00
66560;BME280;53413;49.878;8.142;2023-03-31T05:05:12;98692.94;;;10.00;100.00
66560;BME280;53413;49.878;8.142;2023-03-31T05:07:38;98688.63;;;9.99;100.00
66560;BME280;53413;49.878;8.142;2023-03-31T05:10:04;98678.16;;;9.99;100.00
66560;BME280;53413;49.878;8.142;2023-03-31T05:12:37;98671.06;;;10.01;100.00
66560;BME280;53413;49.878;8.142;2023-03-31T05:15:03;98668.38;;;10.03;100.00
66560;BME280;53413;49.878;8.142;2023-03-31T05:17:33;98649.28;;;10.01;100.00
66560;BME280;53413;49.878;8.142;2023-03-31T05:19:59;98646.69;;;10.01;100.00
66560;BME280;53413;49.878;8.142;2023-03-31T05:22:25;98641.19;;;10.06;100.00
66560;BME280;53413;49.878;8.142;2023-03-31T05:24:51;98622.75;;;10.07;100.00
66560;BME280;53413;49.878;8.142;2023-03-31T05:27:16;98610.59;;;10.06;100.00
66560;BME280;53413;49.878;8.142;2023-03-31T05:29:41;98607.06;;;10.07;100.00
66560;BME280;53413;49.878;8.142;2023-03-31T05:32:08;98603.50;;;10.08;100.00
66560;BME280;53413;49.878;8.142;2023-03-31T05:34:33;98599.03;;;10.10;100.00
66560;BME280;53413;49.878;8.142;2023-03-31T05:36:59;98599.97;;;10.09;100.00
66560;BME280;53413;49.878;8.142;2023-03-31T05:39:24;98606.06;;;10.10;100.00
66560;BME280;53413;49.878;8.142;2023-03-31T05:41:49;98579.78;;;10.11;100.00
66560;BME280;53413;49.878;8.142;2023-03-31T05:44:15;98571.91;;;10.11;100.00
66560;BME280;53413;49.878;8.142;2023-03-31T05:46:40;98564.06;;;10.11;100.00
66560;BME280;53413;49.878;8.142;2023-03-31T05:49:06;98559.66;;;10.12;100.00
66560;BME280;53413;49.878;8.142;2023-03-31T05:51:31;98552.84;;;10.09;100.00
66560;BME280;53413;49.878;8.142;2023-03-31T05:53:57;98543.88;;;10.13;100.00
66560;BME280;53413;49.878;8.142;2023-03-31T05:56:22;98534.41;;;10.11;100.00
66560;BME280;53413;49.878;8.142;2023-03-31T05:58:48;98522.94;;;10.13;100.00
66560;BME280;53413;49.878;8.142;2023-03-31T06:01:15;98510.63;;;10.15;100.00
66560;BME280;53413;49.878;8.142;2023-03-31T06:03:44;98505.28;;;10.17;100.00
66560;BME280;53413;49.878;8.142;2023-03-31T06:06:10;98493.00;;;10.17;100.00
66560;BME280;53413;49.878;8.142;2023-03-31T06:08:39;98484.63;;;10.12;100.00
66560;BME280;53413;49.878;8.142;2023-03-31T06:11:06;98482.28;;;10.08;100.00
66560;BME280;53413;49.878;8.142;2023-03-31T06:13:33;98479.94;;;10.03;100.00
66560;BME280;53413;49.878;8.142;2023-03-31T06:15:59;98476.47;;;10.02;100.00
66560;BME280;53413;49.878;8.142;2023-03-31T06:18:29;98466.00;;;10.02;100.00
66560;BME280;53413;49.878;8.142;2023-03-31T06:20:55;98464.44;;;10.00;100.00
66560;BME280;53413;49.878;8.142;2023-03-31T06:23:21;98463.56;;;9.99;100.00
66560;BME280;53413;49.878;8.142;2023-03-31T06:25:47;98453.19;;;9.98;100.00
66560;BME280;53413;49.878;8.142;2023-03-31T06:28:12;98451.25;;;10.01;100.00
66560;BME280;53413;49.878;8.142;2023-03-31T06:30:38;98447.50;;;10.06;100.00
66560;BME280;53413;49.878;8.142;2023-03-31T06:33:03;98446.66;;;10.05;100.00
66560;BME280;53413;49.878;8.142;2023-03-31T06:35:29;98435.25;;;10.06;100.00
66560;BME280;53413;49.878;8.142;2023-03-31T06:37:54;98426.47;;;10.07;100.00
66560;BME280;53413;49.878;8.142;2023-03-31T06:40:19;98427.22;;;10.09;100.00
66560;BME280;53413;49.878;8.142;2023-03-31T06:42:45;98427.41;;;10.06;100.00
66560;BME280;53413;49.878;8.142;2023-03-31T06:45:10;98420.13;;;10.11;100.00
66560;BME280;53413;49.878;8.142;2023-03-31T06:47:35;98417.38;;;10.13;100.00
66560;BME280;53413;49.878;8.142;2023-03-31T06:50:06;98419.00;;;10.15;100.00
66560;BME280;53413;49.878;8.142;2023-03-31T06:52:32;98413.56;;;10.19;100.00
66560;BME280;53413;49.878;8.142;2023-03-31T06:54:58;98412.72;;;10.18;100.00
66560;BME280;53413;49.878;8.142;2023-03-31T06:57:27;98419.47;;;10.22;100.00
66560;BME280;53413;49.878;8.142;2023-03-31T06:59:53;98428.72;;;10.28;100.00
66560;BME280;53413;49.878;8.142;2023-03-31T07:02:19;98424.88;;;10.34;100.00
66560;BME280;53413;49.878;8.142;2023-03-31T07:04:44;98420.75;;;10.44;100.00
66560;BME280;53413;49.878;8.142;2023-03-31T07:07:10;98471.53;;;10.41;100.00
66560;BME280;53413;49.878;8.142;2023-03-31T07:09:35;98439.09;;;10.44;100.00
66560;BME280;53413;49.878;8.142;2023-03-31T07:12:01;98431.84;;;10.62;100.00
66560;BME280;53413;49.878;8.142;2023-03-31T07:14:29;98445.44;;;10.82;100.00
66560;BME280;53413;49.878;8.142;2023-03-31T07:16:55;98471.13;;;10.89;100.00
66560;BME280;53413;49.878;8.142;2023-03-31T07:19:20;98472.25;;;10.85;100.00
66560;BME280;53413;49.878;8.142;2023-03-31T07:21:45;98456.09;;;10.78;100.00
66560;BME280;53413;49.878;8.142;2023-03-31T07:24:11;98471.19;;;10.75;100.00
66560;BME280;53413;49.878;8.142;2023-03-31T07:26:36;98452.19;;;10.71;100.00
66560;BME280;53413;49.878;8.142;2023-03-31T07:29:01;98448.53;;;10.74;100.00
66560;BME280;53413;49.878;8.142;2023-03-31T07:31:27;98432.47;;;10.93;100.00
66560;BME280;53413;49.878;8.142;2023-03-31T07:33:52;98436.09;;;11.18;100.00
66560;BME280;53413;49.878;8.142;2023-03-31T07:36:17;98419.16;;;11.36;100.00
66560;BME280;53413;49.878;8.142;2023-03-31T07:38:44;98411.50;;;11.59;100.00
66560;BME280;53413;49.878;8.142;2023-03-31T07:41:12;98418.50;;;11.97;100.00
66560;BME280;53413;49.878;8.142;2023-03-31T07:43:37;98415.91;;;12.72;100.00
66560;BME280;53413;49.878;8.142;2023-03-31T07:46:04;98415.97;;;14.68;100.00
66560;BME280;53413;49.878;8.142;2023-03-31T07:48:32;98423.44;;;16.02;100.00
66560;BME280;53413;49.878;8.142;2023-03-31T07:50:58;98417.31;;;17.69;100.00
66560;BME280;53413;49.878;8.142;2023-03-31T07:53:23;98418.34;;;16.90;100.00
66560;BME280;53413;49.878;8.142;2023-03-31T07:55:48;98430.09;;;15.75;100.00
66560;BME280;53413;49.878;8.142;2023-03-31T07:58:14;98433.63;;;14.89;100.00
66560;BME280;53413;49.878;8.142;2023-03-31T08:00:39;98440.88;;;14.64;100.00
66560;BME280;53413;49.878;8.142;2023-03-31T08:03:04;98440.78;;;14.98;100.00
66560;BME280;53413;49.878;8.142;2023-03-31T08:05:31;98446.03;;;15.09;100.00
66560;BME280;53413;49.878;8.142;2023-03-31T08:07:56;98443.53;;;14.53;100.00
66560;BME280;53413;49.878;8.142;2023-03-31T08:10:25;98447.97;;;13.84;100.00
66560;BME280;53413;49.878;8.142;2023-03-31T08:12:51;98453.59;;;13.32;100.00
66560;BME280;53413;49.878;8.142;2023-03-31T08:15:16;98450.44;;;12.91;100.00
66560;BME280;53413;49.878;8.142;2023-03-31T08:17:42;98430.09;;;12.45;100.00
66560;BME280;53413;49.878;8.142;2023-03-31T08:20:08;98432.59;;;12.09;100.00
66560;BME280;53413;49.878;8.142;2023-03-31T08:22:35;98414.34;;;11.82;100.00
66560;BME280;53413;49.878;8.142;2023-03-31T08:25:01;98410.44;;;11.75;100.00
66560;BME280;53413;49.878;8.142;2023-03-31T08:27:26;98420.31;;;11.84;100.00
66560;BME280;53413;49.878;8.142;2023-03-31T08:29:52;98417.66;;;12.84;100.00
66560;BME280;53413;49.878;8.142;2023-03-31T08:32:17;98411.00;;;14.20;100.00
66560;BME280;53413;49.878;8.142;2023-03-31T08:34:42;98402.56;;;15.98;100.00
66560;BME280;53413;49.878;8.142;2023-03-31T08:37:09;98375.75;;;19.71;96.69
66560;BME280;53413;49.878;8.142;2023-03-31T08:39:34;98378.41;;;23.15;73.11
66560;BME280;53413;49.878;8.142;2023-03-31T08:42:15;98379.41;;;25.50;58.57
66560;BME280;53413;49.878;8.142;2023-03-31T08:44:45;98370.88;;;26.72;54.51
66560;BME280;53413;49.878;8.142;2023-03-31T08:47:17;98366.06;;;25.35;55.57
66560;BME280;53413;49.878;8.142;2023-03-31T08:49:53;98360.31;;;22.79;59.90
66560;BME280;53413;49.878;8.142;2023-03-31T08:52:33;98372.75;;;19.92;67.42
66560;BME280;53413;49.878;8.142;2023-03-31T08:55:05;98382.91;;;18.07;75.56
66560;BME280;53413;49.878;8.142;2023-03-31T08:57:46;98379.78;;;16.68;83.88
66560;BME280;53413;49.878;8.142;2023-03-31T09:00:16;98390.00;;;15.91;93.26
66560;BME280;53413;49.878;8.142;2023-03-31T09:08:37;98385.69;;;14.95;100.00
66560;BME280;53413;49.878;8.142;2023-03-31T09:11:13;98392.28;;;16.46;100.00
66560;BME280;53413;49.878;8.142;2023-03-31T09:16:23;98387.59;;;17.28;94.32
66560;BME280;53413;49.878;8.142;2023-03-31T09:18:53;98384.53;;;16.84;95.61
66560;BME280;53413;49.878;8.142;2023-03-31T09:21:34;98379.84;;;16.17;93.63
66560;BME280;53413;49.878;8.142;2023-03-31T09:29:12;98358.72;;;15.34;98.37
66560;BME280;53413;49.878;8.142;2023-03-31T09:31:44;98363.69;;;15.27;97.63
66560;BME280;53413;49.878;8.142;2023-03-31T09:34:24;98361.50;;;15.32;99.17
66560;BME280;53413;49.878;8.142;2023-03-31T09:36:50;98356.22;;;15.32;96.83
66560;BME280;53413;49.878;8.142;2023-03-31T09:39:16;98352.66;;;15.43;96.54
66560;BME280;53413;49.878;8.142;2023-03-31T09:41:46;98339.88;;;15.69;98.07
66560;BME280;53413;49.878;8.142;2023-03-31T09:44:31;98335.16;;;16.04;97.30
66560;BME280;53413;49.878;8.142;2023-03-31T09:47:01;98327.38;;;16.03;94.45
66560;BME280;53413;49.878;8.142;2023-03-31T09:49:31;98326.69;;;15.69;95.25
66560;BME280;53413;49.878;8.142;2023-03-31T09:54:40;98315.53;;;15.14;100.00
66560;BME280;53413;49.878;8.142;2023-03-31T09:57:28;98334.06;;;15.45;99.77
66560;BME280;53413;49.878;8.142;2023-03-31T10:00:13;98326.72;;;15.27;95.57
66560;BME280;53413;49.878;8.142;2023-03-31T10:05:39;98368.59;;;13.43;100.00
66560;BME280;53413;49.878;8.142;2023-03-31T10:11:16;98368.38;;;11.76;100.00
66560;BME280;53413;49.878;8.142;2023-03-31T10:13:46;98361.34;;;11.38;100.00
66560;BME280;53413;49.878;8.142;2023-03-31T10:16:30;98348.22;;;11.38;100.00
66560;BME280;53413;49.878;8.142;2023-03-31T10:19:11;98354.50;;;11.61;100.00
66560;BME280;53413;49.878;8.142;2023-03-31T10:21:38;98359.97;;;11.84;100.00
66560;BME280;53413;49.878;8.142;2023-03-31T10:24:08;98355.94;;;11.91;100.00
66560;BME280;53413;49.878;8.142;2023-03-31T10:26:34;98347.34;;;12.02;100.00
66560;BME280;53413;49.878;8.142;2023-03-31T10:29:00;98339.50;;;12.26;100.00
66560;BME280;53413;49.878;8.142;2023-03-31T10:31:33;98328.59;;;12.68;100.00
66560;BME280;53413;49.878;8.142;2023-03-31T10:34:04;98323.72;;;13.11;100.00
66560;BME280;53413;49.878;8.142;2023-03-31T10:36:30;98313.84;;;13.60;100.00
66560;BME280;53413;49.878;8.142;2023-03-31T10:38:56;98305.88;;;14.16;100.00
66560;BME280;53413;49.878;8.142;2023-03-31T10:41:24;98297.13;;;14.60;100.00
66560;BME280;53413;49.878;8.142;2023-03-31T10:43:56;98281.13;;;15.15;100.00
66560;BME280;53413;49.878;8.142;2023-03-31T10:46:50;98282.88;;;15.67;100.00
66560;BME280;53413;49.878;8.142;2023-03-31T10:49:26;98278.97;;;16.12;100.00
66560;BME280;53413;49.878;8.142;2023-03-31T10:51:56;98273.69;;;16.61;100.00
66560;BME280;53413;49.878;8.142;2023-03-31T10:54:23;98271.75;;;16.73;100.00
66560;BME280;53413;49.878;8.142;2023-03-31T10:56:54;98263.69;;;16.55;100.00
66560;BME280;53413;49.878;8.142;2023-03-31T11:04:41;98270.59;;;15.87;100.00
66560;BME280;53413;49.878;8.142;2023-03-31T11:12:41;98272.16;;;16.09;100.00
66560;BME280;53413;49.878;8.142;2023-03-31T11:25:53;98270.56;;;17.62;84.11
66560;BME280;53413;49.878;8.142;2023-03-31T11:41:52;98262.44;;;16.69;93.30
66560;BME280;53413;49.878;8.142;2023-03-31T11:44:20;98262.59;;;16.48;94.17
66560;BME280;53413;49.878;8.142;2023-03-31T11:46:57;98273.56;;;16.04;93.92
66560;BME280;53413;49.878;8.142;2023-03-31T11:49:34;98253.09;;;16.06;96.89
66560;BME280;53413;49.878;8.142;2023-03-31T11:52:15;98253.94;;;16.75;94.95
66560;BME280;53413;49.878;8.142;2023-03-31T11:54:53;98248.69;;;17.60;89.80
66560;BME280;53413;49.878;8.142;2023-03-31T11:57:32;98248.66;;;17.98;86.88
66560;BME280;53413;49.878;8.142;2023-03-31T12:06:02;98246.84;;;16.16;87.99
66560;BME280;53413;49.878;8.142;2023-03-31T12:08:34;98239.91;;;16.65;84.08
66560;BME280;53413;49.878;8.142;2023-03-31T12:11:25;98234.97;;;17.09;84.97
66560;BME280;53413;49.878;8.142;2023-03-31T12:14:12;98238.31;;;17.39;81.59
66560;BME280;53413;49.878;8.142;2023-03-31T12:16:47;98220.75;;;17.10;79.53
66560;BME280;53413;49.878;8.142;2023-03-31T12:19:19;98225.22;;;16.90;80.66
66560;BME280;53413;49.878;8.142;2023-03-31T12:21:54;98221.91;;;16.78;81.44
66560;BME280;53413;49.878;8.142;2023-03-31T12:24:20;98218.81;;;16.92;81.42
66560;BME280;53413;49.878;8.142;2023-03-31T12:29:33;98212.03;;;17.83;80.97
66560;BME280;53413;49.878;8.142;2023-03-31T12:32:04;98212.97;;;18.10;80.90
66560;BME280;53413;49.878;8.142;2023-03-31T12:34:33;98208.63;;;17.91;78.42
66560;BME280;53413;49.878;8.142;2023-03-31T12:37:29;98219.59;;;17.50;77.64
66560;BME280;53413;49.878;8.142;2023-03-31T12:45:09;98229.28;;;16.84;83.63
66560;BME280;53413;49.878;8.142;2023-03-31T12:47:44;98226.97;;;16.42;82.77
66560;BME280;53413;49.878;8.142;2023-03-31T12:56:07;98234.22;;;15.19;83.58
66560;BME280;53413;49.878;8.142;2023-03-31T12:58:40;98236.72;;;14.99;82.85
66560;BME280;53413;49.878;8.142;2023-03-31T13:01:22;98256.28;;;14.54;87.66
66560;BME280;53413;49.878;8.142;2023-03-31T13:04:16;98269.31;;;13.79;100.00
66560;BME280;53413;49.878;8.142;2023-03-31T13:06:49;98265.22;;;12.96;100.00
66560;BME280;53413;49.878;8.142;2023-03-31T13:11:43;98244.44;;;11.97;100.00
66560;BME280;53413;49.878;8.142;2023-03-31T13:14:37;98228.88;;;11.69;100.00
66560;BME280;53413;49.878;8.142;2023-03-31T13:19:39;98224.94;;;11.88;100.00
66560;BME280;53413;49.878;8.142;2023-03-31T13:22:05;98236.41;;;12.11;100.00
66560;BME280;53413;49.878;8.142;2023-03-31T13:24:32;98226.16;;;12.44;100.00
66560;BME280;53413;49.878;8.142;2023-03-31T13:27:32;98209.25;;;12.71;100.00
66560;BME280;53413;49.878;8.142;2023-03-31T13:29:57;98207.38;;;12.84;100.00
66560;BME280;53413;49.878;8.142;2023-03-31T13:32:24;98204.06;;;13.05;100.00
66560;BME280;53413;49.878;8.142;2023-03-31T13:35:23;98204.53;;;13.44;100.00
66560;BME280;53413;49.878;8.142;2023-03-31T13:52:00;98191.34;;;15.27;100.00
66560;BME280;53413;49.878;8.142;2023-03-31T14:05:52;98168.88;;;15.01;100.00
66560;BME280;53413;49.878;8.142;2023-03-31T14:11:29;98170.00;;;14.77;100.00
66560;BME280;53413;49.878;8.142;2023-03-31T14:14:12;98153.38;;;14.77;100.00
66560;BME280;53413;49.878;8.142;2023-03-31T14:17:02;98157.22;;;14.73;100.00
66560;BME280;53413;49.878;8.142;2023-03-31T14:25:42;98150.59;;;14.78;100.00
66560;BME280;53413;49.878;8.142;2023-03-31T14:39:20;98153.94;;;14.38;100.00
66560;BME280;53413;49.878;8.142;2023-03-31T14:41:51;98161.56;;;13.99;100.00
66560;BME280;53413;49.878;8.142;2023-03-31T14:44:17;98185.84;;;13.59;100.00
66560;BME280;53413;49.878;8.142;2023-03-31T14:46:45;98195.81;;;13.21;100.00
66560;BME280;53413;49.878;8.142;2023-03-31T14:49:20;98210.34;;;12.80;100.00
66560;BME280;53413;49.878;8.142;2023-03-31T14:51:51;98188.22;;;12.59;100.00
66560;BME280;53413;49.878;8.142;2023-03-31T14:54:18;98179.34;;;12.49;100.00
66560;BME280;53413;49.878;8.142;2023-03-31T14:56:47;98174.84;;;12.62;100.00
66560;BME280;53413;49.878;8.142;2023-03-31T14:59:21;98171.53;;;12.94;100.00
66560;BME280;53413;49.878;8.142;2023-03-31T15:01:48;98170.53;;;13.30;100.00
66560;BME280;53413;49.878;8.142;2023-03-31T15:04:18;98174.22;;;13.61;100.00
66560;BME280;53413;49.878;8.142;2023-03-31T15:06:48;98167.06;;;13.96;100.00
66560;BME280;53413;49.878;8.142;2023-03-31T15:09:20;98164.19;;;14.20;100.00
66560;BME280;53413;49.878;8.142;2023-03-31T15:11:52;98166.59;;;14.44;100.00
66560;BME280;53413;49.878;8.142;2023-03-31T15:14:20;98165.88;;;14.63;100.00
66560;BME280;53413;49.878;8.142;2023-03-31T15:16:45;98163.06;;;14.76;100.00
66560;BME280;53413;49.878;8.142;2023-03-31T15:19:13;98162.66;;;14.81;100.00
66560;BME280;53413;49.878;8.142;2023-03-31T15:21:40;98152.78;;;14.52;100.00
66560;BME280;53413;49.878;8.142;2023-03-31T15:24:06;98154.59;;;14.30;100.00
66560;BME280;53413;49.878;8.142;2023-03-31T15:26:37;98145.63;;;14.00;100.00
66560;BME280;53413;49.878;8.142;2023-03-31T15:29:12;98158.69;;;13.91;100.00
66560;BME280;53413;49.878;8.142;2023-03-31T15:31:40;98159.03;;;13.76;100.00
66560;BME280;53413;49.878;8.142;2023-03-31T15:34:33;98156.41;;;13.65;100.00
66560;BME280;53413;49.878;8.142;2023-03-31T15:37:02;98158.44;;;13.61;100.00
66560;BME280;53413;49.878;8.142;2023-03-31T15:39:32;98139.97;;;13.73;100.00
66560;BME280;53413;49.878;8.142;2023-03-31T15:42:01;98154.19;;;13.81;100.00
66560;BME280;53413;49.878;8.142;2023-03-31T15:47:05;98148.50;;;13.97;100.00
66560;BME280;53413;49.878;8.142;2023-03-31T15:49:31;98146.91;;;14.06;100.00
66560;BME280;53413;49.878;8.142;2023-03-31T15:51:57;98150.50;;;14.05;100.00
66560;BME280;53413;49.878;8.142;2023-03-31T15:54:36;98154.97;;;14.05;100.00
66560;BME280;53413;49.878;8.142;2023-03-31T15:57:06;98161.28;;;14.02;100.00
66560;BME280;53413;49.878;8.142;2023-03-31T15:59:49;98166.34;;;13.94;100.00